Etusivu
METAR-TAF:

METAR-TAF

Lentoasemat :

Decorah Municipal Airport

Decorah, Iowa, Yhdysvallat

Leveyspiiri: 43-17N, Pituuspiiri: 091-44W, korkeus merenpinnasta: 353 m

Tämänhetkinen sää

Tämä raportti tehtiin 20 minuuttia sitten, kello 12.35 UTC
Tuuli 9 kn etelästä puuskistuen 15 kn:hen, vaihdellen etelän/kaakon ja etelän/lounaan välillä
Lämpötila -8°C
Kosteus 67%
Ilmanpaine 1015 hPa
Näkyvyys: 16.1 km
Hajonneita pilviä 3300 ft:n korkeudessa
Pilvistä 4300 ft:n korkeudessa

METAR: KDEH 131235Z AUTO 17009G15KT 150V210 10SM BKN033 OVC043 M08/M13 A2997 RMK AO2

Aika: 06:55 (12:55 UTC)


TAF: puuttuu

Säähavainnot ja -ennusteet yli 4000 lentoasemalta (METAR- ja TAF-raportit).

Käytössä olevat sääasemat on merkitty karttaan keltaisilla ja punaisilla pisteillä.

Aseta hiiri pisteen päälle nähdäksesi sääaseman nimen.

Klikkaa sitten nähdäksesi säähavainnot ja -ennusteet.

Kartan vaihtaminen: klikkaa mustalla rastilla varustettuja vihreitä pisteitä, niin voit zoomata sisään; viivalla varustettua vihreää pistettä, niin voit zoomata ulos tai vihreitä nuolia, niin pääset viereisille kartoille.


METAR-TAF: